createdAt,value
2019-02-05T00:00:37.368Z,3.87
2019-02-05T00:03:12.257Z,3.66
2019-02-05T00:05:40.837Z,3.54
2019-02-05T00:08:09.910Z,3.63
2019-02-05T00:10:38.604Z,3.71
2019-02-05T00:13:07.234Z,3.88
2019-02-05T00:15:36.024Z,4.01
2019-02-05T00:18:04.913Z,4.05
2019-02-05T00:20:33.535Z,3.96
2019-02-05T00:23:02.104Z,3.94
2019-02-05T00:25:30.730Z,4.06
2019-02-05T00:27:59.338Z,4.03
2019-02-05T00:30:28.327Z,4.14
2019-02-05T00:32:56.953Z,4.09
2019-02-05T00:35:25.549Z,4.08
2019-02-05T00:37:54.174Z,3.96
2019-02-05T00:40:23.785Z,3.97
2019-02-05T00:42:53.335Z,4.02
2019-02-05T00:45:22.295Z,4.06
2019-02-05T00:47:50.962Z,4.01
2019-02-05T00:50:20.035Z,4.06
2019-02-05T00:52:48.790Z,4.10
2019-02-05T00:55:20.973Z,4.19
2019-02-05T00:57:49.969Z,4.26
2019-02-05T01:00:27.305Z,4.26
2019-02-05T01:02:56.316Z,4.34
2019-02-05T01:05:25.198Z,4.51
2019-02-05T01:07:53.963Z,4.70
2019-02-05T01:10:23.960Z,4.62
2019-02-05T01:12:53.041Z,4.44
2019-02-05T01:15:23.622Z,4.27
2019-02-05T01:17:52.348Z,4.30
2019-02-05T01:20:22.629Z,4.28
2019-02-05T01:22:51.556Z,4.35
2019-02-05T01:25:20.957Z,4.48
2019-02-05T01:27:50.043Z,4.47
2019-02-05T01:30:21.888Z,4.29
2019-02-05T01:32:50.559Z,4.24
2019-02-05T01:35:19.380Z,4.34
2019-02-05T01:37:48.039Z,4.35
2019-02-05T01:40:18.854Z,4.35
2019-02-05T01:42:47.542Z,4.52
2019-02-05T01:45:18.510Z,4.44
2019-02-05T01:47:47.364Z,4.24
2019-02-05T01:50:18.758Z,4.06
2019-02-05T01:52:47.312Z,4.06
2019-02-05T01:55:16.138Z,4.06
2019-02-05T01:57:44.929Z,4.14
2019-02-05T02:00:19.291Z,4.24
2019-02-05T02:02:48.006Z,4.18
2019-02-05T02:05:16.904Z,4.12
2019-02-05T02:07:46.149Z,4.21
2019-02-05T02:10:17.872Z,4.37
2019-02-05T02:12:46.541Z,4.31
2019-02-05T02:15:15.235Z,4.32
2019-02-05T02:17:43.859Z,4.48
2019-02-05T02:20:17.483Z,4.48
2019-02-05T02:22:46.782Z,4.34
2019-02-05T02:25:15.791Z,4.29
2019-02-05T02:27:44.613Z,4.18
2019-02-05T02:30:16.135Z,4.27
2019-02-05T02:32:44.671Z,4.28
2019-02-05T02:35:13.993Z,4.29
2019-02-05T02:37:42.516Z,4.35
2019-02-05T02:40:12.085Z,4.39
2019-02-05T02:42:40.867Z,4.36
2019-02-05T02:45:12.323Z,4.37
2019-02-05T02:47:40.969Z,4.35
2019-02-05T02:50:12.488Z,4.32
2019-02-05T02:52:41.125Z,4.49
2019-02-05T02:55:10.061Z,4.72
2019-02-05T02:57:38.688Z,4.47
2019-02-05T03:00:13.086Z,4.17
2019-02-05T03:02:41.669Z,3.96
2019-02-05T03:05:12.679Z,3.99
2019-02-05T03:07:41.395Z,4.13
2019-02-05T03:10:15.711Z,4.27
2019-02-05T03:12:44.282Z,4.32
2019-02-05T03:15:12.880Z,4.38
2019-02-05T03:17:41.445Z,4.42
2019-02-05T03:20:13.193Z,4.45
2019-02-05T03:22:44.973Z,4.35
2019-02-05T03:25:17.467Z,4.34
2019-02-05T03:27:46.363Z,4.38
2019-02-05T03:30:17.494Z,4.66
2019-02-05T03:32:46.275Z,4.71
2019-02-05T03:35:15.333Z,4.59
2019-02-05T03:37:44.094Z,4.44
2019-02-05T03:40:30.769Z,4.31
2019-02-05T03:42:59.775Z,4.30
2019-02-05T03:45:29.713Z,4.36
2019-02-05T03:48:03.829Z,4.33
2019-02-05T03:50:38.143Z,4.50
2019-02-05T03:53:21.761Z,4.50
2019-02-05T03:55:55.947Z,4.51
2019-02-05T03:58:39.201Z,4.55
2019-02-05T04:01:19.763Z,4.54
2019-02-05T04:03:51.288Z,4.38
2019-02-05T04:06:28.574Z,4.62
2019-02-05T04:09:35.034Z,4.59
2019-02-05T04:12:25.097Z,4.48
2019-02-05T04:14:59.578Z,4.30
2019-02-05T04:17:39.741Z,4.16
2019-02-05T04:20:29.604Z,4.14
2019-02-05T04:23:03.904Z,4.13
2019-02-05T04:25:41.084Z,4.23
2019-02-05T04:28:18.259Z,4.27
2019-02-05T04:30:58.552Z,4.33
2019-02-05T04:33:39.149Z,4.49
2019-02-05T04:36:25.777Z,4.61
2019-02-05T04:39:09.191Z,4.70
2019-02-05T04:41:46.617Z,4.80
2019-02-05T04:44:21.056Z,4.93
2019-02-05T04:47:01.795Z,4.77
2019-02-05T04:49:42.113Z,4.54
2019-02-05T04:52:28.684Z,4.37
2019-02-05T04:55:00.382Z,4.39
2019-02-05T04:57:40.687Z,4.45
2019-02-05T05:00:45.520Z,4.35
2019-02-05T05:03:22.499Z,4.23
2019-02-05T05:06:02.879Z,4.21
2019-02-05T05:08:49.112Z,4.19
2019-02-05T05:11:17.813Z,4.37
2019-02-05T05:13:46.591Z,4.42
2019-02-05T05:16:15.188Z,4.56
2019-02-05T05:18:43.660Z,4.95
2019-02-05T05:21:12.872Z,4.89
2019-02-05T05:23:41.558Z,4.55
2019-02-05T05:26:10.257Z,4.39
2019-02-05T05:28:41.823Z,4.26
2019-02-05T05:31:10.456Z,4.39
2019-02-05T05:33:39.107Z,4.41
2019-02-05T05:36:07.748Z,4.46
2019-02-05T05:38:36.325Z,4.45
2019-02-05T05:41:04.921Z,4.38
2019-02-05T05:43:34.009Z,4.35
2019-02-05T05:46:02.647Z,4.49
2019-02-05T05:48:31.151Z,4.59
2019-02-05T05:50:59.687Z,4.59
2019-02-05T05:53:28.351Z,4.77
2019-02-05T05:55:57.082Z,4.96
2019-02-05T05:58:25.676Z,4.66
2019-02-05T06:00:54.461Z,4.56
2019-02-05T06:03:23.059Z,4.42
2019-02-05T06:05:51.628Z,4.31
2019-02-05T06:08:20.214Z,4.32
2019-02-05T06:10:48.853Z,4.32
2019-02-05T06:13:17.534Z,4.43
2019-02-05T06:15:46.032Z,4.50
2019-02-05T06:18:14.966Z,4.59
2019-02-05T06:20:43.469Z,4.62
2019-02-05T06:23:12.077Z,4.77
2019-02-05T06:25:40.693Z,4.85
2019-02-05T06:28:09.324Z,5.01
2019-02-05T06:30:37.820Z,5.11
2019-02-05T06:33:06.450Z,5.00
2019-02-05T06:35:35.402Z,4.69
2019-02-05T06:38:04.026Z,4.46
2019-02-05T06:40:32.631Z,4.46
2019-02-05T06:43:01.148Z,4.50
2019-02-05T06:45:30.019Z,4.55
2019-02-05T06:47:58.665Z,4.53
2019-02-05T06:50:27.248Z,4.53
2019-02-05T06:52:56.050Z,4.65
2019-02-05T06:55:24.622Z,4.70
2019-02-05T06:57:53.257Z,4.75
2019-02-05T07:00:23.377Z,4.82
2019-02-05T07:02:53.178Z,4.80
2019-02-05T07:05:21.902Z,4.86
2019-02-05T07:07:50.690Z,4.87
2019-02-05T07:10:24.172Z,4.59
2019-02-05T07:12:52.813Z,4.50
2019-02-05T07:15:21.431Z,4.60
2019-02-05T07:17:50.495Z,4.61
2019-02-05T07:20:19.134Z,4.76
2019-02-05T07:22:47.736Z,4.80
2019-02-05T07:25:21.487Z,4.77
2019-02-05T07:27:50.057Z,4.75
2019-02-05T07:30:23.782Z,4.89
2019-02-05T07:32:52.385Z,4.88
2019-02-05T07:35:21.563Z,4.89
2019-02-05T07:37:50.349Z,4.98
2019-02-05T07:40:21.501Z,5.07
2019-02-05T07:42:50.137Z,5.27
2019-02-05T07:45:20.753Z,4.97
2019-02-05T07:47:49.586Z,4.68
2019-02-05T07:50:26.253Z,4.49
2019-02-05T07:52:55.272Z,4.39
2019-02-05T07:55:24.270Z,4.54
2019-02-05T07:57:52.992Z,4.72
2019-02-05T08:00:27.570Z,4.74
2019-02-05T08:02:56.458Z,4.85
2019-02-05T08:05:31.260Z,4.91
2019-02-05T08:08:00.307Z,4.95
2019-02-05T08:10:29.269Z,4.93
2019-02-05T08:12:57.910Z,4.92
2019-02-05T08:15:28.692Z,5.01
2019-02-05T08:17:57.316Z,5.05
2019-02-05T08:20:26.027Z,5.02
2019-02-05T08:22:54.844Z,4.83
2019-02-05T08:25:23.466Z,4.73
2019-02-05T08:27:52.664Z,4.68
2019-02-05T08:30:24.431Z,4.65
2019-02-05T08:32:53.072Z,4.67
2019-02-05T08:35:21.791Z,4.92
2019-02-05T08:37:50.998Z,5.01
2019-02-05T08:40:22.085Z,4.97
2019-02-05T08:42:50.687Z,5.06
2019-02-05T08:45:37.031Z,5.17
2019-02-05T08:48:07.816Z,5.33
2019-02-05T08:50:36.714Z,5.59
2019-02-05T08:53:05.427Z,5.59
2019-02-05T08:55:33.937Z,5.76
2019-02-05T08:58:08.051Z,5.74
2019-02-05T09:00:38.831Z,5.65
2019-02-05T09:03:09.324Z,5.44
2019-02-05T09:05:38.107Z,5.28
2019-02-05T09:08:07.036Z,5.28
2019-02-05T09:10:38.305Z,5.37
2019-02-05T09:13:06.897Z,5.42
2019-02-05T09:15:35.512Z,5.58
2019-02-05T09:18:05.103Z,5.52
2019-02-05T09:20:33.737Z,5.56
2019-02-05T09:23:02.326Z,5.50
2019-02-05T09:25:30.916Z,5.53
2019-02-05T09:27:59.735Z,5.70
2019-02-05T09:30:33.632Z,5.96
2019-02-05T09:33:04.683Z,5.78
2019-02-05T09:35:33.302Z,5.64
2019-02-05T09:38:02.005Z,5.61
2019-02-05T09:40:32.313Z,5.52
2019-02-05T09:43:01.026Z,5.56
2019-02-05T09:45:31.487Z,5.50
2019-02-05T09:48:00.878Z,5.61
2019-02-05T09:50:30.896Z,5.60
2019-02-05T09:53:00.320Z,5.56
2019-02-05T09:55:28.954Z,5.71
2019-02-05T09:57:57.661Z,5.92
2019-02-05T10:00:28.545Z,6.04
2019-02-05T10:02:57.732Z,6.18
2019-02-05T10:05:28.971Z,6.43
2019-02-05T10:07:57.664Z,6.37
2019-02-05T10:10:26.311Z,6.15
2019-02-05T10:12:54.926Z,6.02
2019-02-05T10:15:26.174Z,5.85
2019-02-05T10:17:54.686Z,5.90
2019-02-05T10:20:24.299Z,5.88
2019-02-05T10:22:53.675Z,5.94
2019-02-05T10:25:22.328Z,6.04
2019-02-05T10:27:50.967Z,6.02
2019-02-05T10:30:22.353Z,5.92
2019-02-05T10:32:51.010Z,5.96
2019-02-05T10:35:19.875Z,5.96
2019-02-05T10:37:48.772Z,6.10
2019-02-05T10:40:17.802Z,6.22
2019-02-05T10:42:46.507Z,6.43
2019-02-05T10:45:21.749Z,6.33
2019-02-05T10:47:50.363Z,6.25
2019-02-05T10:50:19.985Z,6.11
2019-02-05T10:52:48.598Z,5.92
2019-02-05T10:55:19.083Z,5.85
2019-02-05T10:57:49.321Z,5.90
2019-02-05T11:00:23.391Z,6.13
2019-02-05T11:02:52.122Z,6.24
2019-02-05T11:05:22.849Z,6.30
2019-02-05T11:07:51.429Z,6.28
2019-02-05T11:10:20.122Z,6.32
2019-02-05T11:12:48.705Z,6.38
2019-02-05T11:15:25.818Z,6.30
2019-02-05T11:17:54.637Z,6.32
2019-02-05T11:20:25.167Z,6.41
2019-02-05T11:22:53.792Z,6.26
2019-02-05T11:25:22.777Z,6.24
2019-02-05T11:27:51.400Z,6.27
2019-02-05T11:30:34.855Z,6.40
2019-02-05T11:33:03.609Z,6.67
2019-02-05T11:35:32.489Z,6.71
2019-02-05T11:38:01.093Z,6.64
2019-02-05T11:40:32.315Z,6.72
2019-02-05T11:43:00.956Z,6.78
2019-02-05T11:45:29.673Z,6.85
2019-02-05T11:47:59.278Z,6.94
2019-02-05T11:50:27.879Z,7.16
2019-02-05T11:52:56.851Z,7.44
2019-02-05T11:55:35.392Z,7.51
2019-02-05T11:58:04.090Z,7.22
2019-02-05T12:00:34.440Z,6.97
2019-02-05T12:03:03.577Z,6.70
2019-02-05T12:05:32.166Z,6.43
2019-02-05T12:08:01.030Z,6.31
2019-02-05T12:10:29.617Z,6.40
2019-02-05T12:12:58.153Z,6.53
2019-02-05T12:15:27.436Z,6.53
2019-02-05T12:17:56.259Z,6.58
2019-02-05T12:20:24.905Z,6.67
2019-02-05T12:22:53.644Z,6.75
2019-02-05T12:25:25.402Z,6.67
2019-02-05T12:27:54.031Z,6.72
2019-02-05T12:30:25.584Z,6.84
2019-02-05T12:32:54.091Z,6.56
2019-02-05T12:35:22.790Z,6.49
2019-02-05T12:37:51.365Z,6.30
2019-02-05T12:40:20.526Z,6.30
2019-02-05T12:42:49.150Z,6.28
2019-02-05T12:45:31.874Z,6.38
2019-02-05T12:48:00.464Z,6.54
2019-02-05T12:50:31.371Z,6.56
2019-02-05T12:53:00.696Z,6.63
2019-02-05T12:55:29.271Z,6.63
2019-02-05T12:57:58.288Z,6.71
2019-02-05T13:00:32.302Z,6.75
2019-02-05T13:03:01.022Z,6.80
2019-02-05T13:05:30.039Z,7.01
2019-02-05T13:07:58.925Z,6.88
2019-02-05T13:10:30.504Z,6.70
2019-02-05T13:12:59.126Z,6.49
2019-02-05T13:15:27.713Z,6.44
2019-02-05T13:17:56.373Z,6.44
2019-02-05T13:20:30.248Z,6.64
2019-02-05T13:22:59.252Z,6.80
2019-02-05T13:25:31.818Z,6.66
2019-02-05T13:28:00.492Z,6.84
2019-02-05T13:30:31.135Z,7.03
2019-02-05T13:32:59.714Z,7.10
2019-02-05T13:35:28.920Z,7.16
2019-02-05T13:37:57.583Z,7.44
2019-02-05T13:40:27.973Z,7.44
2019-02-05T13:42:57.005Z,7.53
2019-02-05T13:45:28.583Z,7.01
2019-02-05T13:47:57.439Z,6.61
2019-02-05T13:50:33.455Z,6.37
2019-02-05T13:53:01.283Z,6.50
2019-02-05T13:55:36.031Z,6.62
2019-02-05T13:58:05.306Z,6.75
2019-02-05T14:00:36.643Z,6.87
2019-02-05T14:03:07.076Z,6.97
2019-02-05T14:05:35.774Z,7.14
2019-02-05T14:08:04.747Z,7.34
2019-02-05T14:10:36.260Z,7.30
2019-02-05T14:13:05.457Z,7.30
2019-02-05T14:15:36.640Z,7.39
2019-02-05T14:18:06.209Z,7.47
2019-02-05T14:20:34.844Z,7.03
2019-02-05T14:23:03.460Z,6.50
2019-02-05T14:25:32.030Z,6.14
2019-02-05T14:28:00.794Z,6.02
2019-02-05T14:30:34.804Z,6.02
2019-02-05T14:33:04.318Z,6.18
2019-02-05T14:35:33.011Z,6.48
2019-02-05T14:38:02.616Z,6.69
2019-02-05T14:40:31.211Z,6.97
2019-02-05T14:42:59.783Z,7.20
2019-02-05T14:45:28.490Z,7.28
2019-02-05T14:47:57.523Z,7.32
2019-02-05T14:50:28.572Z,7.39
2019-02-05T14:52:57.593Z,7.53
2019-02-05T14:55:26.130Z,7.24
2019-02-05T14:57:54.770Z,6.63
2019-02-05T15:00:34.772Z,6.18
2019-02-05T15:03:05.876Z,6.16
2019-02-05T15:05:34.514Z,6.31
2019-02-05T15:08:05.830Z,6.55
2019-02-05T15:10:33.551Z,6.73
2019-02-05T15:13:02.195Z,7.02
2019-02-05T15:15:31.150Z,7.14
2019-02-05T15:17:59.655Z,7.28
2019-02-05T15:20:40.128Z,7.45
2019-02-05T15:23:09.056Z,7.54
2019-02-05T15:25:37.868Z,7.49
2019-02-05T15:28:07.030Z,7.57
2019-02-05T15:30:38.779Z,7.32
2019-02-05T15:33:28.370Z,6.73
2019-02-05T15:35:58.633Z,6.23
2019-02-05T15:38:27.815Z,5.87
2019-02-05T15:40:56.437Z,5.89
2019-02-05T15:43:24.965Z,6.12
2019-02-05T15:45:53.588Z,6.46
2019-02-05T15:48:22.124Z,6.80
2019-02-05T15:50:50.768Z,7.05
2019-02-05T15:53:19.428Z,7.23
2019-02-05T15:55:47.970Z,6.99
2019-02-05T15:58:16.548Z,6.79
2019-02-05T16:00:45.110Z,6.92
2019-02-05T16:03:13.884Z,7.14
2019-02-05T16:05:42.917Z,6.99
2019-02-05T16:08:11.514Z,6.55
2019-02-05T16:10:40.407Z,5.94
2019-02-05T16:13:09.033Z,5.74
2019-02-05T16:15:37.692Z,5.82
2019-02-05T16:18:06.497Z,5.99
2019-02-05T16:20:35.150Z,6.32
2019-02-05T16:23:04.013Z,6.46
2019-02-05T16:25:33.600Z,6.54
2019-02-05T16:28:02.239Z,6.66
2019-02-05T16:30:31.640Z,6.74
2019-02-05T16:33:00.269Z,6.72
2019-02-05T16:35:28.904Z,6.82
2019-02-05T16:37:57.454Z,6.93
2019-02-05T16:40:28.441Z,7.07
2019-02-05T16:42:56.990Z,6.96
2019-02-05T16:45:28.023Z,6.81
2019-02-05T16:47:56.657Z,6.73
2019-02-05T16:50:30.727Z,6.71
2019-02-05T16:53:00.117Z,6.67
2019-02-05T16:55:29.033Z,6.65
2019-02-05T16:57:57.661Z,6.65
2019-02-05T17:00:34.547Z,6.78
2019-02-05T17:05:40.805Z,7.07
2019-02-05T17:08:09.776Z,7.11
2019-02-05T17:10:39.282Z,7.16
2019-02-05T17:13:07.887Z,7.21
2019-02-05T17:15:36.468Z,7.34
2019-02-05T17:18:05.374Z,7.26
2019-02-05T17:20:34.955Z,6.83
2019-02-05T17:23:04.431Z,6.62
2019-02-05T17:25:35.902Z,6.19
2019-02-05T17:28:05.996Z,6.09
2019-02-05T17:30:39.559Z,6.35
2019-02-05T17:33:08.180Z,6.71
2019-02-05T17:35:37.134Z,7.13
2019-02-05T17:38:07.648Z,7.13
2019-02-05T17:40:37.072Z,7.20
2019-02-05T17:43:06.291Z,7.28
2019-02-05T17:45:37.212Z,7.32
2019-02-05T17:48:09.021Z,7.23
2019-02-05T17:50:37.688Z,7.29
2019-02-05T17:53:06.305Z,7.06
2019-02-05T17:55:35.755Z,6.59
2019-02-05T17:58:04.360Z,6.25
2019-02-05T18:00:38.272Z,5.95
2019-02-05T18:03:07.001Z,5.96
2019-02-05T18:05:35.909Z,6.17
2019-02-05T18:08:04.943Z,6.47
2019-02-05T18:10:33.536Z,6.71
2019-02-05T18:13:02.156Z,6.88
2019-02-05T18:15:38.120Z,7.04
2019-02-05T18:18:07.544Z,7.17
2019-02-05T18:20:36.418Z,7.23
2019-02-05T18:23:05.349Z,7.11
2019-02-05T18:25:33.849Z,7.17
2019-02-05T18:28:02.428Z,7.06
2019-02-05T18:30:36.464Z,6.64
2019-02-05T18:33:05.988Z,6.41
2019-02-05T18:35:34.771Z,6.42
2019-02-05T18:38:08.437Z,6.28
2019-02-05T18:40:36.954Z,6.37
2019-02-05T18:43:05.659Z,6.50
2019-02-05T18:45:34.293Z,6.51
2019-02-05T18:48:02.875Z,6.57
2019-02-05T18:50:32.132Z,6.60
2019-02-05T18:53:00.775Z,6.67
2019-02-05T18:55:35.285Z,6.72
2019-02-05T18:58:09.545Z,6.72
2019-02-05T19:00:40.316Z,6.80
2019-02-05T19:03:15.454Z,6.79
2019-02-05T19:05:39.592Z,6.65
2019-02-05T19:08:08.418Z,6.41
2019-02-05T19:10:37.112Z,6.25
2019-02-05T19:13:05.794Z,6.27
2019-02-05T19:15:37.081Z,6.22
2019-02-05T19:18:06.751Z,6.30
2019-02-05T19:20:35.476Z,6.34
2019-02-05T19:23:05.603Z,6.45
2019-02-05T19:25:38.556Z,6.51
2019-02-05T19:28:07.554Z,6.49
2019-02-05T19:30:37.770Z,6.57
2019-02-05T19:33:06.418Z,6.61
2019-02-05T19:35:35.053Z,6.73
2019-02-05T19:38:03.637Z,6.75
2019-02-05T19:40:32.276Z,6.63
2019-02-05T19:43:01.178Z,6.41
2019-02-05T19:45:34.364Z,6.32
2019-02-05T19:48:04.679Z,6.26
2019-02-05T19:50:33.233Z,6.18
2019-02-05T19:53:01.945Z,6.25
2019-02-05T19:55:30.668Z,6.32
2019-02-05T19:57:59.507Z,6.39
2019-02-05T20:00:28.172Z,6.56
2019-02-05T20:02:56.873Z,6.60
2019-02-05T20:05:25.474Z,6.66
2019-02-05T20:07:54.182Z,6.66
2019-02-05T20:10:22.809Z,6.42
2019-02-05T20:12:51.322Z,6.45
2019-02-05T20:15:20.063Z,5.93
2019-02-05T20:17:48.718Z,5.17
2019-02-05T20:20:21.577Z,4.43
2019-02-05T20:22:50.576Z,4.06
2019-02-05T20:25:19.771Z,4.16
2019-02-05T20:27:48.535Z,4.60
2019-02-05T20:30:19.431Z,4.98
2019-02-05T20:32:48.014Z,5.32
2019-02-05T20:35:16.642Z,5.49
2019-02-05T20:37:45.329Z,5.60
2019-02-05T20:40:19.337Z,5.56
2019-02-05T20:42:47.949Z,5.61
2019-02-05T20:45:16.566Z,5.63
2019-02-05T20:47:45.165Z,5.63
2019-02-05T20:50:15.783Z,5.53
2019-02-05T20:52:44.371Z,5.03
2019-02-05T20:55:18.330Z,4.72
2019-02-05T20:57:46.927Z,4.43
2019-02-05T21:00:18.321Z,4.45
2019-02-05T21:02:47.036Z,4.77
2019-02-05T21:05:18.028Z,4.95
2019-02-05T21:07:46.707Z,5.19
2019-02-05T21:10:27.284Z,5.37
2019-02-05T21:12:55.966Z,5.48
2019-02-05T21:15:25.848Z,5.50
2019-02-05T21:17:54.557Z,5.55
2019-02-05T21:20:30.307Z,5.61
2019-02-05T21:22:58.785Z,5.62
2019-02-05T21:25:28.695Z,5.74
2019-02-05T21:27:58.454Z,5.40
2019-02-05T21:30:27.503Z,5.02
2019-02-05T21:32:56.128Z,4.75
2019-02-05T21:35:25.050Z,4.69
2019-02-05T21:37:53.670Z,4.86
2019-02-05T21:40:24.315Z,5.00
2019-02-05T21:42:52.920Z,5.10
2019-02-05T21:45:23.972Z,5.14
2019-02-05T21:47:53.104Z,5.18
2019-02-05T21:50:22.743Z,5.24
2019-02-05T21:52:51.944Z,5.25
2019-02-05T21:55:22.763Z,5.25
2019-02-05T21:57:51.475Z,5.36
2019-02-05T22:00:25.690Z,5.50
2019-02-05T22:02:54.574Z,5.24
2019-02-05T22:05:23.494Z,4.69
2019-02-05T22:07:52.119Z,4.41
2019-02-05T22:10:21.087Z,4.11
2019-02-05T22:12:49.892Z,4.13
2019-02-05T22:15:19.762Z,4.35
2019-02-05T22:17:48.375Z,4.54
2019-02-05T22:20:25.832Z,4.70
2019-02-05T22:22:56.191Z,4.92
2019-02-05T22:25:27.993Z,4.92
2019-02-05T22:27:56.601Z,4.84
2019-02-05T22:30:32.661Z,4.67
2019-02-05T22:33:01.346Z,4.42
2019-02-05T22:35:30.012Z,4.50
2019-02-05T22:37:58.592Z,4.07
2019-02-05T22:40:28.261Z,3.31
2019-02-05T22:42:57.248Z,2.67
2019-02-05T22:45:33.522Z,2.57
2019-02-05T22:48:02.203Z,2.88
2019-02-05T22:50:33.682Z,3.22
2019-02-05T22:53:04.174Z,3.44
2019-02-05T22:55:32.797Z,3.70
2019-02-05T22:58:01.433Z,3.96
2019-02-05T23:00:42.796Z,4.18
2019-02-05T23:03:11.773Z,4.33
2019-02-05T23:05:58.767Z,4.49
2019-02-05T23:08:27.493Z,4.53
2019-02-05T23:11:17.110Z,4.81
2019-02-05T23:13:45.706Z,4.70
2019-02-05T23:16:14.348Z,4.35
2019-02-05T23:18:42.966Z,3.87
2019-02-05T23:21:11.579Z,3.81
2019-02-05T23:23:40.248Z,4.09
2019-02-05T23:26:09.875Z,4.43
2019-02-05T23:28:38.550Z,4.68
2019-02-05T23:31:07.258Z,4.78
2019-02-05T23:33:35.900Z,4.95
2019-02-05T23:36:04.826Z,5.07
2019-02-05T23:38:33.438Z,5.16
2019-02-05T23:41:02.113Z,5.17
2019-02-05T23:43:31.127Z,5.09
2019-02-05T23:46:01.751Z,5.10
2019-02-05T23:48:30.061Z,5.07
2019-02-05T23:50:58.664Z,4.68
2019-02-05T23:53:27.265Z,4.21
2019-02-05T23:55:55.871Z,3.94
2019-02-05T23:58:24.508Z,4.03
